createdAt,value
2023-03-10T00:01:27.492Z,11.55
2023-03-10T00:03:55.664Z,11.54
2023-03-10T00:06:26.233Z,11.55
2023-03-10T00:08:53.484Z,11.56
2023-03-10T00:11:20.339Z,11.56
2023-03-10T00:13:46.998Z,11.48
2023-03-10T00:16:21.810Z,11.46
2023-03-10T00:18:48.923Z,11.55
2023-03-10T00:21:17.875Z,11.45
2023-03-10T00:23:44.518Z,11.41
2023-03-10T00:26:18.385Z,11.44
2023-03-10T00:28:45.536Z,11.37
2023-03-10T00:31:15.360Z,11.41
2023-03-10T00:33:42.300Z,11.45
2023-03-10T00:36:19.264Z,11.42
2023-03-10T00:41:25.774Z,11.35
2023-03-10T00:43:52.908Z,11.38
2023-03-10T00:46:19.934Z,11.37
2023-03-10T00:48:46.640Z,11.38
2023-03-10T00:51:13.283Z,11.40
2023-03-10T00:53:40.905Z,11.41
2023-03-10T00:56:19.514Z,11.35
2023-03-10T00:58:47.792Z,11.36
2023-03-10T01:01:20.522Z,11.36
2023-03-10T01:03:47.268Z,11.38
2023-03-10T01:06:14.128Z,11.42
2023-03-10T01:08:40.815Z,11.42
2023-03-10T01:13:40.948Z,11.39
2023-03-10T01:16:08.563Z,11.35
2023-03-10T01:21:18.661Z,11.25
2023-03-10T01:23:45.233Z,11.23
2023-03-10T01:26:12.040Z,11.26
2023-03-10T01:28:38.724Z,11.25
2023-03-10T01:31:07.940Z,11.24
2023-03-10T01:33:41.643Z,11.30
2023-03-10T01:36:09.717Z,11.18
2023-03-10T01:38:38.109Z,11.12
2023-03-10T01:41:05.965Z,11.13
2023-03-10T01:43:35.614Z,11.12
2023-03-10T01:48:36.280Z,11.21
2023-03-10T01:51:03.760Z,11.22
2023-03-10T01:53:30.605Z,11.22
2023-03-10T01:56:00.831Z,11.18
2023-03-10T01:58:34.654Z,11.24
2023-03-10T02:01:01.710Z,11.28
2023-03-10T02:03:34.504Z,11.32
2023-03-10T02:06:05.060Z,11.28
2023-03-10T02:08:36.160Z,11.28
2023-03-10T02:11:03.974Z,11.27
2023-03-10T02:13:30.576Z,11.28
2023-03-10T02:15:57.646Z,11.28
2023-03-10T02:18:25.742Z,11.28
2023-03-10T02:21:07.532Z,11.28
2023-03-10T02:23:51.307Z,11.29
2023-03-10T02:26:56.322Z,11.26
2023-03-10T02:29:28.738Z,11.21
2023-03-10T02:31:57.014Z,11.23
2023-03-10T02:34:25.477Z,11.20
2023-03-10T02:36:52.296Z,11.15
2023-03-10T02:39:18.825Z,11.15
2023-03-10T02:41:45.929Z,11.15
2023-03-10T02:44:15.151Z,11.11
2023-03-10T02:46:41.760Z,11.06
2023-03-10T02:49:10.920Z,11.04
2023-03-10T02:51:43.994Z,11.07
2023-03-10T02:54:11.012Z,11.03
2023-03-10T02:56:37.961Z,11.02
2023-03-10T02:59:06.628Z,11.04
2023-03-10T03:01:33.772Z,10.98
2023-03-10T03:04:01.038Z,10.97
2023-03-10T03:06:28.141Z,10.96
2023-03-10T03:08:54.788Z,10.93
2023-03-10T03:11:22.719Z,10.87
2023-03-10T03:13:49.258Z,10.83
2023-03-10T03:16:16.066Z,10.85
2023-03-10T03:18:42.649Z,10.86
2023-03-10T03:21:16.012Z,10.82
2023-03-10T03:23:45.289Z,10.81
2023-03-10T03:26:20.664Z,10.77
2023-03-10T03:28:48.019Z,10.77
2023-03-10T03:31:20.849Z,10.77
2023-03-10T03:36:25.940Z,10.69
2023-03-10T03:38:52.462Z,10.66
2023-03-10T03:41:19.088Z,10.58
2023-03-10T03:43:45.658Z,10.59
2023-03-10T03:46:12.303Z,10.60
2023-03-10T03:48:39.171Z,10.55
2023-03-10T03:51:05.934Z,10.55
2023-03-10T03:53:33.921Z,10.51
2023-03-10T03:56:00.576Z,10.48
2023-03-10T03:58:27.236Z,10.48
2023-03-10T04:00:53.805Z,10.42
2023-03-10T04:03:20.487Z,10.41
2023-03-10T04:05:47.245Z,10.43
2023-03-10T04:08:14.329Z,10.45
2023-03-10T04:10:41.122Z,10.37
2023-03-10T04:13:07.713Z,10.43
2023-03-10T04:15:35.372Z,10.34
2023-03-10T04:18:01.993Z,10.38
2023-03-10T04:20:28.593Z,10.39
2023-03-10T04:22:55.151Z,10.38
2023-03-10T04:25:21.837Z,10.34
2023-03-10T04:27:48.427Z,10.36
2023-03-10T04:30:15.308Z,10.39
2023-03-10T04:32:42.148Z,10.36
2023-03-10T04:35:11.322Z,10.38
2023-03-10T04:37:38.053Z,10.38
2023-03-10T04:40:09.479Z,10.37
2023-03-10T04:42:36.497Z,10.39
2023-03-10T04:45:03.929Z,10.34
2023-03-10T04:47:30.521Z,10.33
2023-03-10T04:49:57.082Z,10.30
2023-03-10T04:52:23.726Z,10.31
2023-03-10T04:54:50.300Z,10.34
2023-03-10T04:57:16.984Z,10.36
2023-03-10T04:59:44.106Z,10.40
2023-03-10T05:02:10.706Z,10.40
2023-03-10T05:04:37.401Z,10.47
2023-03-10T05:07:04.191Z,10.41
2023-03-10T05:09:30.743Z,10.41
2023-03-10T05:11:57.345Z,10.41
2023-03-10T05:14:23.909Z,10.46
2023-03-10T05:16:50.525Z,10.55
2023-03-10T05:19:17.360Z,10.49
2023-03-10T05:21:43.886Z,10.40
2023-03-10T05:26:42.255Z,10.37
2023-03-10T05:29:09.125Z,10.33
2023-03-10T05:31:35.713Z,10.30
2023-03-10T05:34:02.507Z,10.26
2023-03-10T05:36:29.100Z,10.26
2023-03-10T05:38:55.798Z,10.22
2023-03-10T05:41:22.876Z,10.18
2023-03-10T05:43:49.455Z,10.21
2023-03-10T05:46:16.075Z,10.14
2023-03-10T05:48:42.672Z,10.11
2023-03-10T05:51:12.338Z,10.17
2023-03-10T05:53:39.983Z,10.16
2023-03-10T05:56:09.307Z,10.13
2023-03-10T05:58:36.462Z,10.20
2023-03-10T06:01:03.538Z,10.21
2023-03-10T06:03:31.097Z,10.28
2023-03-10T06:05:58.585Z,10.33
2023-03-10T06:08:28.137Z,10.40
2023-03-10T06:10:55.446Z,10.40
2023-03-10T06:13:22.545Z,10.46
2023-03-10T06:15:56.507Z,10.47
2023-03-10T06:18:23.515Z,10.48
2023-03-10T06:20:50.640Z,10.53
2023-03-10T06:23:18.104Z,10.46
2023-03-10T06:25:44.951Z,10.51
2023-03-10T06:28:12.535Z,10.53
2023-03-10T06:30:39.070Z,10.50
2023-03-10T06:33:05.604Z,10.49
2023-03-10T06:35:32.341Z,10.44
2023-03-10T06:37:58.997Z,10.33
2023-03-10T06:40:26.019Z,10.20
2023-03-10T06:42:52.574Z,10.13
2023-03-10T06:45:19.326Z,10.08
2023-03-10T06:50:23.260Z,9.93
2023-03-10T06:52:49.837Z,9.92
2023-03-10T06:55:17.239Z,9.94
2023-03-10T06:57:43.928Z,9.91
2023-03-10T07:00:15.624Z,9.90
2023-03-10T07:02:43.110Z,9.95
2023-03-10T07:05:14.152Z,10.07
2023-03-10T07:07:41.060Z,10.05
2023-03-10T07:10:08.722Z,10.01
2023-03-10T07:12:35.330Z,10.07
2023-03-10T07:15:03.072Z,10.10
2023-03-10T07:17:29.652Z,10.11
2023-03-10T07:22:33.245Z,10.17
2023-03-10T07:24:59.956Z,10.14
2023-03-10T07:27:26.518Z,10.07
2023-03-10T07:29:53.103Z,10.09
2023-03-10T07:32:19.700Z,10.17
2023-03-10T07:34:46.371Z,10.32
2023-03-10T07:37:13.120Z,10.46
2023-03-10T07:39:39.657Z,10.60
2023-03-10T07:42:06.390Z,10.62
2023-03-10T07:44:33.027Z,10.64
2023-03-10T07:46:59.664Z,10.58
2023-03-10T07:49:26.308Z,10.59
2023-03-10T07:51:52.882Z,10.55
2023-03-10T07:54:19.450Z,10.56
2023-03-10T07:56:46.028Z,10.55
2023-03-10T07:59:12.647Z,10.52
2023-03-10T08:01:39.186Z,10.53
2023-03-10T08:04:06.596Z,10.58
2023-03-10T08:06:35.677Z,10.62
2023-03-10T08:09:03.192Z,10.70
2023-03-10T08:11:30.275Z,10.73
2023-03-10T08:13:57.145Z,10.70
2023-03-10T08:16:24.301Z,10.67
2023-03-10T08:18:54.920Z,10.54
2023-03-10T08:21:22.013Z,10.45
2023-03-10T08:23:48.680Z,10.28
2023-03-10T08:26:17.866Z,10.21
2023-03-10T08:28:44.938Z,10.06
2023-03-10T08:31:14.627Z,9.91
2023-03-10T08:33:42.506Z,9.87
2023-03-10T08:36:17.261Z,9.89
2023-03-10T08:38:44.128Z,9.86
2023-03-10T08:41:28.973Z,9.87
2023-03-10T08:43:57.674Z,9.85
2023-03-10T08:46:26.023Z,9.90
2023-03-10T08:48:53.571Z,9.84
2023-03-10T08:51:20.590Z,9.82
2023-03-10T08:53:49.621Z,9.79
2023-03-10T08:56:18.333Z,9.89
2023-03-10T08:58:44.958Z,10.26
2023-03-10T09:01:13.906Z,10.67
2023-03-10T09:03:42.967Z,10.54
2023-03-10T09:06:09.838Z,10.60
2023-03-10T09:08:36.667Z,10.52
2023-03-10T09:11:03.444Z,10.58
2023-03-10T09:13:30.072Z,10.97
2023-03-10T09:15:56.687Z,11.45
2023-03-10T09:18:23.688Z,11.90
2023-03-10T09:20:51.432Z,12.23
2023-03-10T09:23:20.384Z,12.44
2023-03-10T09:25:46.952Z,12.24
2023-03-10T09:28:13.547Z,12.11
2023-03-10T09:30:41.842Z,12.06
2023-03-10T09:36:05.855Z,12.10
2023-03-10T09:38:33.268Z,12.24
2023-03-10T09:41:16.734Z,12.32
2023-03-10T09:43:50.930Z,12.30
2023-03-10T09:46:25.472Z,12.31
2023-03-10T09:49:19.234Z,12.33
2023-03-10T09:51:49.725Z,12.32
2023-03-10T09:54:27.710Z,12.08
2023-03-10T09:56:56.150Z,11.92
2023-03-10T09:59:34.476Z,11.73
2023-03-10T10:02:03.989Z,11.64
2023-03-10T10:04:41.756Z,11.55
2023-03-10T10:07:15.707Z,11.48
2023-03-10T10:10:00.805Z,11.35
2023-03-10T10:12:27.551Z,11.23
2023-03-10T10:14:58.773Z,11.21
2023-03-10T10:17:53.689Z,11.24
2023-03-10T10:20:32.355Z,11.27
2023-03-10T10:25:37.439Z,11.15
2023-03-10T10:28:05.351Z,11.01
2023-03-10T10:30:37.491Z,10.94
2023-03-10T10:33:08.282Z,10.83
2023-03-10T10:35:42.290Z,10.74
2023-03-10T10:38:11.337Z,10.79
2023-03-10T10:41:07.844Z,10.85
2023-03-10T10:43:43.620Z,10.84
2023-03-10T10:46:12.734Z,10.94
2023-03-10T10:48:47.383Z,10.88
2023-03-10T10:51:30.128Z,10.79
2023-03-10T10:53:58.613Z,10.88
2023-03-10T10:56:25.422Z,10.86
2023-03-10T10:59:05.804Z,10.83
2023-03-10T11:01:53.307Z,10.80
2023-03-10T11:04:21.079Z,10.88
2023-03-10T11:09:26.221Z,10.93
2023-03-10T11:12:12.781Z,10.95
2023-03-10T11:15:33.419Z,10.98
2023-03-10T11:18:24.512Z,11.00
2023-03-10T11:21:09.271Z,11.02
2023-03-10T11:26:21.255Z,11.05
2023-03-10T11:29:05.094Z,10.97
2023-03-10T11:31:56.498Z,10.84
2023-03-10T11:34:35.487Z,10.85
2023-03-10T11:37:04.940Z,10.95
2023-03-10T11:39:49.925Z,10.94
2023-03-10T11:42:27.847Z,11.02
2023-03-10T11:47:58.372Z,10.97
2023-03-10T11:50:47.365Z,11.01
2023-03-10T11:53:32.120Z,11.00
2023-03-10T11:56:01.788Z,11.10
2023-03-10T11:58:53.879Z,11.14
2023-03-10T12:01:30.820Z,11.02
2023-03-10T12:04:16.572Z,11.00
2023-03-10T12:06:57.663Z,10.91
2023-03-10T12:09:39.122Z,10.87
2023-03-10T12:12:07.659Z,10.83
2023-03-10T12:14:35.673Z,10.77
2023-03-10T12:17:03.647Z,10.91
2023-03-10T12:19:30.234Z,10.96
2023-03-10T12:22:24.965Z,10.96
2023-03-10T12:24:53.245Z,10.95
2023-03-10T12:27:19.918Z,10.91
2023-03-10T12:29:46.690Z,10.99
2023-03-10T12:32:39.771Z,11.01
2023-03-10T12:35:28.764Z,11.06
2023-03-10T12:38:35.514Z,11.10
2023-03-10T12:41:02.266Z,11.08
2023-03-10T12:43:37.598Z,11.00
2023-03-10T12:46:07.894Z,10.95
2023-03-10T12:48:39.094Z,10.88
2023-03-10T12:51:13.764Z,10.94
2023-03-10T12:54:14.876Z,10.84
2023-03-10T12:56:57.515Z,10.90
2023-03-10T12:59:40.848Z,10.83
2023-03-10T13:02:38.859Z,10.89
2023-03-10T13:05:18.213Z,10.98
2023-03-10T13:07:57.130Z,11.08
2023-03-10T13:10:26.056Z,11.03
2023-03-10T13:13:01.095Z,11.00
2023-03-10T13:15:30.749Z,11.02
2023-03-10T13:18:21.321Z,11.03
2023-03-10T13:20:49.341Z,11.00
2023-03-10T13:23:23.966Z,10.99
2023-03-10T13:26:07.013Z,10.92
2023-03-10T13:28:35.206Z,10.84
2023-03-10T13:31:16.744Z,10.83
2023-03-10T13:33:52.960Z,10.72
2023-03-10T13:36:32.088Z,10.65
2023-03-10T13:39:01.838Z,10.59
2023-03-10T13:41:30.354Z,10.58
2023-03-10T13:43:56.957Z,10.43
2023-03-10T13:49:08.012Z,10.21
2023-03-10T13:51:37.557Z,10.17
2023-03-10T13:54:25.594Z,10.01
2023-03-10T13:57:07.472Z,9.86
2023-03-10T13:59:36.197Z,9.82
2023-03-10T14:02:04.607Z,9.82
2023-03-10T14:04:46.422Z,9.86
2023-03-10T14:07:20.625Z,9.82
2023-03-10T14:10:10.564Z,9.93
2023-03-10T14:12:45.911Z,9.99
2023-03-10T14:15:21.510Z,10.00
2023-03-10T14:18:13.394Z,10.08
2023-03-10T14:20:45.299Z,9.99
2023-03-10T14:23:25.916Z,10.05
2023-03-10T14:25:55.018Z,10.11
2023-03-10T14:28:30.248Z,10.16
2023-03-10T14:30:57.942Z,10.17
2023-03-10T14:33:24.633Z,10.20
2023-03-10T14:35:51.279Z,10.14
2023-03-10T14:38:18.128Z,10.08
2023-03-10T14:40:47.526Z,10.04
2023-03-10T14:43:28.570Z,9.98
2023-03-10T14:45:57.583Z,9.86
2023-03-10T14:48:27.963Z,9.78
2023-03-10T14:50:56.789Z,9.69
2023-03-10T14:53:25.485Z,9.72
2023-03-10T14:55:55.930Z,9.69
2023-03-10T14:58:25.915Z,9.72
2023-03-10T15:00:52.777Z,9.70
2023-03-10T15:03:19.431Z,9.70
2023-03-10T15:05:48.962Z,9.57
2023-03-10T15:08:17.264Z,9.62
2023-03-10T15:10:48.668Z,9.52
2023-03-10T15:13:16.604Z,9.48
2023-03-10T15:15:45.162Z,9.37
2023-03-10T15:18:14.612Z,9.37
2023-03-10T15:20:41.392Z,9.33
2023-03-10T15:23:08.899Z,9.29
2023-03-10T15:25:35.502Z,9.18
2023-03-10T15:28:02.405Z,9.32
2023-03-10T15:30:32.235Z,9.31
2023-03-10T15:32:58.893Z,9.22
2023-03-10T15:35:25.933Z,9.15
2023-03-10T15:37:52.712Z,9.10
2023-03-10T15:40:28.341Z,9.05
2023-03-10T15:42:57.998Z,8.99
2023-03-10T15:45:26.993Z,8.96
2023-03-10T15:47:53.871Z,8.90
2023-03-10T15:50:21.665Z,8.82
2023-03-10T15:55:21.667Z,8.81
2023-03-10T15:57:50.095Z,8.78
2023-03-10T16:00:19.090Z,8.67
2023-03-10T16:02:46.792Z,8.71
2023-03-10T16:05:13.710Z,8.68
2023-03-10T16:10:15.997Z,8.78
2023-03-10T16:12:42.625Z,8.79
2023-03-10T16:17:43.282Z,8.92
2023-03-10T16:20:12.907Z,8.95
2023-03-10T16:25:19.004Z,9.01
2023-03-10T16:27:46.465Z,9.01
2023-03-10T16:30:15.174Z,8.94
2023-03-10T16:32:46.342Z,8.95
2023-03-10T16:35:12.971Z,8.75
2023-03-10T16:37:39.557Z,8.71
2023-03-10T16:40:07.832Z,8.52
2023-03-10T16:42:36.460Z,8.46
2023-03-10T16:45:04.586Z,8.44
2023-03-10T16:47:31.533Z,8.52
2023-03-10T16:49:58.123Z,8.50
2023-03-10T16:52:24.775Z,8.43
2023-03-10T16:54:51.308Z,8.38
2023-03-10T16:57:18.229Z,8.34
2023-03-10T16:59:44.945Z,8.22
2023-03-10T17:02:16.316Z,8.28
2023-03-10T17:04:43.510Z,8.19
2023-03-10T17:07:10.178Z,8.07
2023-03-10T17:09:38.156Z,8.01
2023-03-10T17:12:05.213Z,7.91
2023-03-10T17:14:31.899Z,7.89
2023-03-10T17:16:58.568Z,7.93
2023-03-10T17:19:30.058Z,7.87
2023-03-10T17:21:58.363Z,7.86
2023-03-10T17:24:25.948Z,7.80
2023-03-10T17:26:52.677Z,7.74
2023-03-10T17:29:19.339Z,7.68
2023-03-10T17:31:50.471Z,7.67
2023-03-10T17:34:18.185Z,7.66
2023-03-10T17:36:45.210Z,7.68
2023-03-10T17:39:18.173Z,7.64
2023-03-10T17:41:44.805Z,7.61
2023-03-10T17:44:11.642Z,7.61
2023-03-10T17:46:40.989Z,7.61
2023-03-10T17:49:09.637Z,7.72
2023-03-10T17:51:36.285Z,7.75
2023-03-10T17:54:03.183Z,7.73
2023-03-10T17:56:29.944Z,7.74
2023-03-10T17:58:57.263Z,7.81
2023-03-10T18:01:27.424Z,7.85
2023-03-10T18:03:58.318Z,7.85
2023-03-10T18:06:30.911Z,7.86
2023-03-10T18:08:59.786Z,7.85
2023-03-10T18:11:27.160Z,7.66
2023-03-10T18:13:54.225Z,7.62
2023-03-10T18:16:29.125Z,7.54
2023-03-10T18:18:57.538Z,7.55
2023-03-10T18:21:25.741Z,7.52
2023-03-10T18:23:53.120Z,7.40
2023-03-10T18:26:24.153Z,7.44
2023-03-10T18:28:50.876Z,7.43
2023-03-10T18:31:23.843Z,7.42
2023-03-10T18:33:50.454Z,7.51
2023-03-10T18:36:18.452Z,7.49
2023-03-10T18:38:46.605Z,7.41
2023-03-10T18:41:13.955Z,7.33
2023-03-10T18:43:40.633Z,7.31
2023-03-10T18:46:08.566Z,7.39
2023-03-10T18:51:13.670Z,7.12
2023-03-10T18:53:40.995Z,7.06
2023-03-10T18:56:08.070Z,6.87
2023-03-10T18:58:35.083Z,6.73
2023-03-10T19:01:01.662Z,6.67
2023-03-10T19:03:29.717Z,6.66
2023-03-10T19:05:56.872Z,6.69
2023-03-10T19:08:24.823Z,6.72
2023-03-10T19:10:59.916Z,6.58
2023-03-10T19:13:28.361Z,6.52
2023-03-10T19:15:55.036Z,6.50
2023-03-10T19:18:22.209Z,6.44
2023-03-10T19:20:49.161Z,6.49
2023-03-10T19:23:15.726Z,6.55
2023-03-10T19:25:42.996Z,6.51
2023-03-10T19:28:09.632Z,6.49
2023-03-10T19:30:36.307Z,6.59
2023-03-10T19:33:02.906Z,6.47
2023-03-10T19:35:29.660Z,6.48
2023-03-10T19:37:56.264Z,6.35
2023-03-10T19:40:23.770Z,6.10
2023-03-10T19:42:50.439Z,5.90
2023-03-10T19:45:18.541Z,5.85
2023-03-10T19:47:46.200Z,5.71
2023-03-10T19:50:16.776Z,5.78
2023-03-10T19:52:49.988Z,5.83
2023-03-10T19:55:20.021Z,5.91
2023-03-10T19:57:51.196Z,5.98
2023-03-10T20:00:24.878Z,5.93
2023-03-10T20:02:55.120Z,5.92
2023-03-10T20:05:25.468Z,5.93
2023-03-10T20:07:52.282Z,5.91
2023-03-10T20:10:18.849Z,5.89
2023-03-10T20:12:47.330Z,5.99
2023-03-10T20:15:14.483Z,5.94
2023-03-10T20:17:41.368Z,5.90
2023-03-10T20:20:11.364Z,5.73
2023-03-10T20:22:45.500Z,5.70
2023-03-10T20:25:15.726Z,5.66
2023-03-10T20:27:42.747Z,5.53
2023-03-10T20:30:14.270Z,5.48
2023-03-10T20:32:41.362Z,5.47
2023-03-10T20:35:08.514Z,5.39
2023-03-10T20:37:36.001Z,5.37
2023-03-10T20:40:06.784Z,5.37
2023-03-10T20:42:34.226Z,5.45
2023-03-10T20:45:00.950Z,5.34
2023-03-10T20:47:27.478Z,5.28
2023-03-10T20:49:54.401Z,5.30
2023-03-10T20:52:21.359Z,5.19
2023-03-10T20:54:47.921Z,5.23
2023-03-10T20:57:14.681Z,5.14
2023-03-10T20:59:41.254Z,5.39
2023-03-10T21:02:07.957Z,5.22
2023-03-10T21:04:34.531Z,5.16
2023-03-10T21:07:01.160Z,5.14
2023-03-10T21:09:27.839Z,5.11
2023-03-10T21:11:54.395Z,5.06
2023-03-10T21:14:20.939Z,5.00
2023-03-10T21:16:47.586Z,5.05
2023-03-10T21:19:14.315Z,5.07
2023-03-10T21:21:41.264Z,4.95
2023-03-10T21:26:46.122Z,5.06
2023-03-10T21:29:12.888Z,4.97
2023-03-10T21:31:39.498Z,4.98
2023-03-10T21:34:06.048Z,4.92
2023-03-10T21:36:32.929Z,4.92
2023-03-10T21:38:59.467Z,4.87
2023-03-10T21:41:29.109Z,4.88
2023-03-10T21:46:29.752Z,4.81
2023-03-10T21:48:57.041Z,4.77
2023-03-10T21:51:25.237Z,4.74
2023-03-10T21:53:56.488Z,4.70
2023-03-10T21:56:26.028Z,4.74
2023-03-10T21:58:52.627Z,4.73
2023-03-10T22:01:19.298Z,4.79
2023-03-10T22:03:45.855Z,4.84
2023-03-10T22:06:12.418Z,4.77
2023-03-10T22:08:39.362Z,4.71
2023-03-10T22:11:08.191Z,4.67
2023-03-10T22:13:37.441Z,4.60
2023-03-10T22:16:06.821Z,4.61
2023-03-10T22:18:34.034Z,4.49
2023-03-10T22:21:00.822Z,4.59
2023-03-10T22:23:27.434Z,4.54
2023-03-10T22:25:53.999Z,4.58
2023-03-10T22:28:20.543Z,4.56
2023-03-10T22:30:47.163Z,4.53
2023-03-10T22:33:13.700Z,4.54
2023-03-10T22:35:40.283Z,4.47
2023-03-10T22:38:06.991Z,4.52
2023-03-10T22:40:33.671Z,4.46
2023-03-10T22:43:00.196Z,4.43
2023-03-10T22:45:30.271Z,4.40
2023-03-10T22:48:01.249Z,4.41
2023-03-10T22:50:32.690Z,4.45
2023-03-10T22:53:01.074Z,4.37
2023-03-10T22:55:34.917Z,4.43
2023-03-10T22:58:06.903Z,4.44
2023-03-10T23:00:34.300Z,4.35
2023-03-10T23:03:00.994Z,4.38
2023-03-10T23:05:28.433Z,4.42
2023-03-10T23:07:56.184Z,4.46
2023-03-10T23:10:28.544Z,4.40
2023-03-10T23:12:55.817Z,4.36
2023-03-10T23:15:26.614Z,4.52
2023-03-10T23:17:54.507Z,4.41
2023-03-10T23:20:24.296Z,4.34
2023-03-10T23:22:50.998Z,4.43
2023-03-10T23:25:29.055Z,4.39
2023-03-10T23:33:15.388Z,4.24
2023-03-10T23:35:42.355Z,4.27
2023-03-10T23:38:09.487Z,4.24
2023-03-10T23:40:36.941Z,4.30
2023-03-10T23:43:05.958Z,4.29
2023-03-10T23:45:36.045Z,4.29
2023-03-10T23:48:04.840Z,4.29
2023-03-10T23:50:37.079Z,4.23
2023-03-10T23:53:06.135Z,4.14
2023-03-10T23:55:37.273Z,4.20
2023-03-10T23:58:05.230Z,4.19
